createdAt,value
2023-04-04T00:01:37.992Z,100040.34
2023-04-04T00:04:23.112Z,100038.05
2023-04-04T00:06:55.995Z,100036.36
2023-04-04T00:09:44.931Z,100038.27
2023-04-04T00:12:17.898Z,100031.60
2023-04-04T00:14:48.409Z,100028.54
2023-04-04T00:20:15.159Z,100027.92
2023-04-04T00:22:47.640Z,100030.17
2023-04-04T00:25:17.244Z,100024.21
2023-04-04T00:27:46.209Z,100018.52
2023-04-04T00:30:20.852Z,100019.65
2023-04-04T00:32:49.506Z,100021.77
2023-04-04T00:35:17.845Z,100022.02
2023-04-04T00:37:50.139Z,100024.18
2023-04-04T00:40:18.619Z,100024.02
2023-04-04T00:42:48.647Z,100024.67
2023-04-04T00:45:18.993Z,100027.14
2023-04-04T00:47:47.611Z,100025.13
2023-04-04T00:50:23.709Z,100027.03
2023-04-04T00:52:52.261Z,100029.02
2023-04-04T00:55:26.072Z,100035.63
2023-04-04T00:57:55.265Z,100039.45
2023-04-04T01:00:32.371Z,100048.00
2023-04-04T01:06:58.577Z,100042.02
2023-04-04T01:09:26.967Z,100041.71
2023-04-04T01:11:55.220Z,100040.65
2023-04-04T01:14:22.886Z,100037.04
2023-04-04T01:16:54.915Z,100038.52
2023-04-04T01:19:31.572Z,100037.45
2023-04-04T01:22:02.832Z,100038.12
2023-04-04T01:24:34.963Z,100028.85
2023-04-04T01:27:08.545Z,100030.39
2023-04-04T01:29:44.375Z,100033.33
2023-04-04T01:32:31.329Z,100038.47
2023-04-04T01:35:12.199Z,100037.08
2023-04-04T01:37:50.530Z,100040.33
2023-04-04T01:40:21.315Z,100040.78
2023-04-04T01:42:52.651Z,100040.84
2023-04-04T01:45:22.526Z,100037.63
2023-04-04T01:47:49.636Z,100036.55
2023-04-04T01:50:22.485Z,100038.91
2023-04-04T01:52:51.424Z,100046.50
2023-04-04T01:55:19.775Z,100051.31
2023-04-04T01:57:49.218Z,100055.75
2023-04-04T02:00:20.690Z,100055.86
2023-04-04T02:02:50.014Z,100063.02
2023-04-04T02:05:17.452Z,100061.33
2023-04-04T02:07:50.921Z,100067.34
2023-04-04T02:10:31.068Z,100066.78
2023-04-04T02:13:00.715Z,100068.17
2023-04-04T02:15:27.876Z,100070.70
2023-04-04T02:17:56.491Z,100069.44
2023-04-04T02:20:23.588Z,100069.23
2023-04-04T02:22:58.815Z,100067.41
2023-04-04T02:25:26.003Z,100065.67
2023-04-04T02:27:58.203Z,100061.81
2023-04-04T02:30:25.208Z,100055.54
2023-04-04T02:32:54.150Z,100047.27
2023-04-04T02:35:21.418Z,100044.73
2023-04-04T02:37:48.330Z,100044.34
2023-04-04T02:40:29.712Z,100046.35
2023-04-04T02:43:04.423Z,100044.40
2023-04-04T02:45:33.328Z,100041.70
2023-04-04T02:48:09.313Z,100043.35
2023-04-04T02:50:44.541Z,100042.21
2023-04-04T02:53:12.696Z,100034.02
2023-04-04T02:55:41.973Z,100034.97
2023-04-04T02:58:18.777Z,100033.45
2023-04-04T03:00:46.896Z,100039.94
2023-04-04T03:06:10.331Z,100033.13
2023-04-04T03:08:39.227Z,100035.27
2023-04-04T03:11:06.274Z,100035.19
2023-04-04T03:13:37.112Z,100038.84
2023-04-04T03:16:08.073Z,100043.80
2023-04-04T03:18:48.514Z,100053.86
2023-04-04T03:21:19.786Z,100056.20
2023-04-04T03:23:49.496Z,100063.17
2023-04-04T03:26:24.940Z,100062.09
2023-04-04T03:28:55.776Z,100059.57
2023-04-04T03:31:24.747Z,100059.40
2023-04-04T03:33:53.514Z,100064.43
2023-04-04T03:36:25.727Z,100068.05
2023-04-04T03:38:56.298Z,100073.52
2023-04-04T03:41:24.164Z,100077.02
2023-04-04T03:43:52.607Z,100085.34
2023-04-04T03:46:22.421Z,100084.68
2023-04-04T03:48:50.390Z,100074.83
2023-04-04T03:51:26.276Z,100074.39
2023-04-04T03:53:53.819Z,100078.11
2023-04-04T03:56:21.373Z,100076.23
2023-04-04T03:58:48.692Z,100081.96
2023-04-04T04:01:20.854Z,100073.70
2023-04-04T04:03:49.818Z,100071.60
2023-04-04T04:06:17.921Z,100070.48
2023-04-04T04:08:53.412Z,100068.95
2023-04-04T04:11:20.720Z,100069.14
2023-04-04T04:13:48.557Z,100065.13
2023-04-04T04:16:15.816Z,100069.64
2023-04-04T04:18:45.352Z,100072.30
2023-04-04T04:21:15.099Z,100076.90
2023-04-04T04:23:49.438Z,100081.19
2023-04-04T04:26:18.106Z,100079.98
2023-04-04T04:28:45.497Z,100081.20
2023-04-04T04:31:15.145Z,100077.86
2023-04-04T04:33:54.650Z,100076.19
2023-04-04T04:36:38.071Z,100078.45
2023-04-04T04:39:16.761Z,100078.66
2023-04-04T04:41:54.700Z,100075.50
2023-04-04T04:44:27.785Z,100080.12
2023-04-04T04:46:55.844Z,100082.55
2023-04-04T04:49:32.443Z,100088.98
2023-04-04T04:52:10.742Z,100088.86
2023-04-04T04:54:40.768Z,100092.33
2023-04-04T04:57:08.124Z,100092.30
2023-04-04T04:59:37.727Z,100097.98
2023-04-04T05:02:08.218Z,100099.95
2023-04-04T05:04:41.686Z,100101.64
2023-04-04T05:07:11.898Z,100101.11
2023-04-04T05:09:39.865Z,100105.20
2023-04-04T05:12:10.601Z,100102.96
2023-04-04T05:14:46.628Z,100093.88
2023-04-04T05:17:19.676Z,100095.33
2023-04-04T05:19:48.446Z,100096.15
2023-04-04T05:22:19.017Z,100097.55
2023-04-04T05:24:56.557Z,100098.14
2023-04-04T05:27:26.574Z,100093.40
2023-04-04T05:30:07.553Z,100102.19
2023-04-04T05:32:52.474Z,100109.23
2023-04-04T05:35:25.567Z,100120.73
2023-04-04T05:37:57.587Z,100126.75
2023-04-04T05:40:27.833Z,100138.69
2023-04-04T05:43:06.065Z,100146.20
2023-04-04T05:45:41.962Z,100140.74
2023-04-04T05:48:15.264Z,100131.60
2023-04-04T05:50:48.724Z,100119.23
2023-04-04T05:53:18.522Z,100108.64
2023-04-04T05:55:51.252Z,100108.35
2023-04-04T05:58:25.071Z,100105.72
2023-04-04T06:00:57.308Z,100105.75
2023-04-04T06:03:25.370Z,100111.61
2023-04-04T06:05:52.573Z,100116.11
2023-04-04T06:08:27.029Z,100124.13
2023-04-04T06:10:55.494Z,100127.56
2023-04-04T06:13:31.959Z,100123.52
2023-04-04T06:16:06.220Z,100120.44
2023-04-04T06:18:33.113Z,100134.46
2023-04-04T06:21:04.275Z,100138.63
2023-04-04T06:23:31.841Z,100142.76
2023-04-04T06:26:10.056Z,100142.29
2023-04-04T06:28:51.193Z,100141.37
2023-04-04T06:31:29.802Z,100148.28
2023-04-04T06:34:01.704Z,100149.23
2023-04-04T06:36:34.182Z,100142.38
2023-04-04T06:39:06.388Z,100141.48
2023-04-04T06:41:34.398Z,100139.83
2023-04-04T06:44:01.855Z,100138.76
2023-04-04T06:46:32.673Z,100131.57
2023-04-04T06:49:06.557Z,100131.92
2023-04-04T06:51:36.060Z,100129.71
2023-04-04T06:54:11.682Z,100130.23
2023-04-04T06:56:39.885Z,100123.73
2023-04-04T06:59:17.700Z,100128.24
2023-04-04T07:01:45.204Z,100129.85
2023-04-04T07:04:12.877Z,100130.61
2023-04-04T07:06:39.608Z,100122.33
2023-04-04T07:09:15.451Z,100129.42
2023-04-04T07:11:48.855Z,100133.08
2023-04-04T07:14:32.436Z,100139.70
2023-04-04T07:17:00.868Z,100138.81
2023-04-04T07:19:29.580Z,100135.38
2023-04-04T07:21:57.808Z,100132.23
2023-04-04T07:24:28.839Z,100136.80
2023-04-04T07:26:58.405Z,100134.23
2023-04-04T07:29:25.639Z,100132.31
2023-04-04T07:31:52.747Z,100126.88
2023-04-04T07:34:25.524Z,100131.56
2023-04-04T07:36:54.183Z,100130.39
2023-04-04T07:39:23.173Z,100133.60
2023-04-04T07:41:59.644Z,100145.35
2023-04-04T07:44:28.056Z,100149.10
2023-04-04T07:47:06.282Z,100153.34
2023-04-04T07:49:37.407Z,100156.16
2023-04-04T07:52:04.525Z,100164.87
2023-04-04T07:54:31.722Z,100165.65
2023-04-04T07:57:01.252Z,100165.58
2023-04-04T07:59:29.206Z,100169.59
2023-04-04T08:01:56.453Z,100168.30
2023-04-04T08:04:23.683Z,100168.73
2023-04-04T08:06:55.586Z,100165.17
2023-04-04T08:09:25.614Z,100167.48
2023-04-04T08:11:53.074Z,100171.02
2023-04-04T08:14:24.144Z,100168.91
2023-04-04T08:16:58.612Z,100161.27
2023-04-04T08:19:25.528Z,100160.12
2023-04-04T08:21:53.257Z,100161.71
2023-04-04T08:24:21.885Z,100162.06
2023-04-04T08:26:54.898Z,100160.90
2023-04-04T08:29:34.148Z,100159.00
2023-04-04T08:32:01.282Z,100159.73
2023-04-04T08:34:30.327Z,100156.92
2023-04-04T08:36:57.460Z,100155.77
2023-04-04T08:39:31.438Z,100157.02
2023-04-04T08:42:06.017Z,100157.18
2023-04-04T08:44:37.917Z,100166.16
2023-04-04T08:47:05.353Z,100167.17
2023-04-04T08:49:37.363Z,100166.96
2023-04-04T08:52:05.883Z,100168.80
2023-04-04T08:54:36.894Z,100167.69
2023-04-04T08:57:04.922Z,100161.04
2023-04-04T08:59:39.774Z,100163.53
2023-04-04T09:02:12.253Z,100167.20
2023-04-04T09:04:39.382Z,100170.52
2023-04-04T09:07:06.532Z,100167.29
2023-04-04T09:09:35.956Z,100166.27
2023-04-04T09:12:03.097Z,100165.33
2023-04-04T09:14:32.080Z,100168.56
2023-04-04T09:17:00.387Z,100171.61
2023-04-04T09:19:27.307Z,100174.87
2023-04-04T09:22:02.954Z,100172.98
2023-04-04T09:24:40.242Z,100171.13
2023-04-04T09:27:12.716Z,100168.20
2023-04-04T09:29:44.371Z,100172.96
2023-04-04T09:32:15.762Z,100172.38
2023-04-04T09:34:51.296Z,100172.36
2023-04-04T09:37:18.239Z,100174.50
2023-04-04T09:39:55.295Z,100173.93
2023-04-04T09:42:22.113Z,100171.47
2023-04-04T09:45:01.169Z,100176.30
2023-04-04T09:47:31.755Z,100178.06
2023-04-04T09:50:03.962Z,100179.20
2023-04-04T09:52:33.103Z,100175.24
2023-04-04T09:55:03.592Z,100173.33
2023-04-04T09:57:37.626Z,100172.86
2023-04-04T10:00:08.667Z,100171.80
2023-04-04T10:02:46.769Z,100165.83
2023-04-04T10:08:15.391Z,100168.34
2023-04-04T10:11:09.797Z,100166.48
2023-04-04T10:13:44.201Z,100169.02
2023-04-04T10:16:11.659Z,100171.82
2023-04-04T10:18:42.963Z,100168.83
2023-04-04T10:21:15.162Z,100171.75
2023-04-04T10:23:47.314Z,100171.46
2023-04-04T10:26:17.352Z,100175.63
2023-04-04T10:28:45.090Z,100174.84
2023-04-04T10:31:19.242Z,100175.65
2023-04-04T10:34:02.939Z,100173.02
2023-04-04T10:36:32.439Z,100166.25
2023-04-04T10:39:15.469Z,100161.61
2023-04-04T10:41:42.613Z,100155.85
2023-04-04T10:44:18.468Z,100152.63
2023-04-04T10:46:47.152Z,100148.02
2023-04-04T10:49:14.817Z,100151.23
2023-04-04T10:51:55.139Z,100150.51
2023-04-04T10:54:22.947Z,100147.67
2023-04-04T10:56:50.400Z,100154.31
2023-04-04T10:59:17.779Z,100155.73
2023-04-04T11:01:53.197Z,100155.98
2023-04-04T11:04:21.619Z,100156.80
2023-04-04T11:07:21.496Z,100157.29
2023-04-04T11:09:55.975Z,100166.93
2023-04-04T11:12:27.470Z,100165.30
2023-04-04T11:15:09.791Z,100161.70
2023-04-04T11:17:48.609Z,100157.08
2023-04-04T11:20:17.198Z,100153.47
2023-04-04T11:22:45.281Z,100155.96
2023-04-04T11:25:27.949Z,100152.52
2023-04-04T11:27:56.050Z,100153.27
2023-04-04T11:30:24.596Z,100151.31
2023-04-04T11:33:04.226Z,100148.39
2023-04-04T11:35:38.850Z,100145.02
2023-04-04T11:38:14.306Z,100147.56
2023-04-04T11:40:42.461Z,100147.52
2023-04-04T11:43:16.602Z,100149.09
2023-04-04T11:45:44.173Z,100151.60
2023-04-04T11:48:20.636Z,100149.63
2023-04-04T11:50:50.860Z,100152.84
2023-04-04T11:53:18.832Z,100151.30
2023-04-04T11:55:49.856Z,100150.19
2023-04-04T11:58:18.187Z,100151.31
2023-04-04T12:00:47.287Z,100146.91
2023-04-04T12:03:16.935Z,100144.33
2023-04-04T12:05:48.198Z,100145.59
2023-04-04T12:08:18.501Z,100147.32
2023-04-04T12:10:47.162Z,100142.19
2023-04-04T12:13:15.102Z,100139.08
2023-04-04T12:15:44.542Z,100140.38
2023-04-04T12:18:19.649Z,100141.44
2023-04-04T12:20:50.683Z,100145.66
2023-04-04T12:23:20.569Z,100144.20
2023-04-04T12:25:52.982Z,100144.02
2023-04-04T12:28:23.745Z,100142.98
2023-04-04T12:30:51.116Z,100138.14
2023-04-04T12:33:18.693Z,100137.67
2023-04-04T12:35:52.879Z,100139.08
2023-04-04T12:39:07.067Z,100135.01
2023-04-04T12:42:08.790Z,100135.70
2023-04-04T12:44:38.153Z,100139.64
2023-04-04T12:47:10.853Z,100142.39
2023-04-04T12:49:39.454Z,100143.40
2023-04-04T12:52:09.521Z,100145.36
2023-04-04T12:54:40.232Z,100146.30
2023-04-04T12:57:12.656Z,100140.55
2023-04-04T12:59:41.442Z,100141.77
2023-04-04T13:02:15.017Z,100141.32
2023-04-04T13:04:47.665Z,100138.23
2023-04-04T13:07:26.056Z,100136.57
2023-04-04T13:09:55.569Z,100132.70
2023-04-04T13:13:00.360Z,100134.55
2023-04-04T13:15:48.593Z,100131.73
2023-04-04T13:18:22.509Z,100127.67
2023-04-04T13:20:51.780Z,100126.01
2023-04-04T13:23:21.000Z,100126.99
2023-04-04T13:25:50.966Z,100124.11
2023-04-04T13:28:19.505Z,100120.90
2023-04-04T13:30:51.165Z,100119.56
2023-04-04T13:33:22.640Z,100115.40
2023-04-04T13:35:51.565Z,100113.20
2023-04-04T13:38:20.563Z,100112.32
2023-04-04T13:40:49.157Z,100110.90
2023-04-04T13:43:26.870Z,100105.46
2023-04-04T13:45:59.141Z,100104.84
2023-04-04T13:48:27.416Z,100104.62
2023-04-04T13:50:56.194Z,100107.77
2023-04-04T13:53:24.649Z,100105.10
2023-04-04T13:56:16.771Z,100100.95
2023-04-04T13:58:46.644Z,100101.61
2023-04-04T14:01:14.909Z,100099.50
2023-04-04T14:03:44.661Z,100103.73
2023-04-04T14:06:13.095Z,100100.36
2023-04-04T14:08:41.378Z,100104.84
2023-04-04T14:11:11.904Z,100102.42
2023-04-04T14:13:40.386Z,100103.84
2023-04-04T14:16:09.322Z,100103.34
2023-04-04T14:18:37.757Z,100103.21
2023-04-04T14:21:06.344Z,100096.23
2023-04-04T14:23:34.536Z,100094.77
2023-04-04T14:26:05.453Z,100092.81
2023-04-04T14:28:38.852Z,100090.64
2023-04-04T14:31:07.356Z,100089.94
2023-04-04T14:33:35.819Z,100088.36
2023-04-04T14:36:04.498Z,100089.01
2023-04-04T14:38:32.776Z,100087.42
2023-04-04T14:41:02.121Z,100090.13
2023-04-04T14:43:30.355Z,100085.92
2023-04-04T14:45:59.890Z,100083.54
2023-04-04T14:48:28.239Z,100078.23
2023-04-04T14:50:56.412Z,100081.34
2023-04-04T14:53:27.867Z,100079.37
2023-04-04T14:55:57.023Z,100081.73
2023-04-04T14:58:25.958Z,100080.97
2023-04-04T15:00:54.648Z,100084.69
2023-04-04T15:03:26.225Z,100086.58
2023-04-04T15:05:57.972Z,100088.93
2023-04-04T15:08:29.202Z,100089.86
2023-04-04T15:10:59.632Z,100089.59
2023-04-04T15:13:33.538Z,100093.52
2023-04-04T15:16:02.155Z,100094.24
2023-04-04T15:18:30.631Z,100090.46
2023-04-04T15:21:00.837Z,100094.77
2023-04-04T15:23:29.713Z,100095.30
2023-04-04T15:26:00.248Z,100096.26
2023-04-04T15:28:28.930Z,100098.52
2023-04-04T15:31:00.636Z,100098.44
2023-04-04T15:33:28.861Z,100097.13
2023-04-04T15:35:57.140Z,100095.14
2023-04-04T15:38:25.824Z,100099.44
2023-04-04T15:40:56.458Z,100100.44
2023-04-04T15:43:24.894Z,100105.55
2023-04-04T15:45:56.297Z,100106.46
2023-04-04T15:48:28.765Z,100107.64
2023-04-04T15:51:01.042Z,100110.27
2023-04-04T15:53:31.172Z,100108.75
2023-04-04T15:56:05.776Z,100109.75
2023-04-04T15:58:34.362Z,100104.92
2023-04-04T16:01:15.798Z,100102.79
2023-04-04T16:03:45.857Z,100102.46
2023-04-04T16:06:15.377Z,100102.70
2023-04-04T16:08:48.769Z,100103.11
2023-04-04T16:11:21.250Z,100100.08
2023-04-04T16:13:50.139Z,100097.23
2023-04-04T16:16:25.998Z,100095.05
2023-04-04T16:18:56.109Z,100088.44
2023-04-04T16:24:21.130Z,100080.95
2023-04-04T16:26:50.433Z,100077.79
2023-04-04T16:29:19.228Z,100078.39
2023-04-04T16:32:01.325Z,100074.75
2023-04-04T16:34:30.422Z,100075.38
2023-04-04T16:37:24.092Z,100076.00
2023-04-04T16:39:52.987Z,100069.02
2023-04-04T16:42:29.458Z,100066.75
2023-04-04T16:44:57.728Z,100066.61
2023-04-04T16:47:27.643Z,100060.06
2023-04-04T16:49:59.121Z,100060.27
2023-04-04T16:52:27.581Z,100059.91
2023-04-04T16:55:06.551Z,100061.01
2023-04-04T16:57:42.897Z,100059.70
2023-04-04T17:00:11.980Z,100055.48
2023-04-04T17:02:50.342Z,100055.20
2023-04-04T17:05:18.864Z,100052.77
2023-04-04T17:07:47.140Z,100055.60
2023-04-04T17:10:15.723Z,100057.52
2023-04-04T17:12:48.504Z,100055.20
2023-04-04T17:15:17.898Z,100054.84
2023-04-04T17:17:49.681Z,100059.56
2023-04-04T17:20:30.198Z,100057.38
2023-04-04T17:23:00.151Z,100052.02
2023-04-04T17:25:33.544Z,100046.92
2023-04-04T17:28:04.480Z,100050.41
2023-04-04T17:30:32.605Z,100050.90
2023-04-04T17:33:08.333Z,100047.50
2023-04-04T17:35:44.632Z,100046.20
2023-04-04T17:38:17.460Z,100040.48
2023-04-04T17:40:46.346Z,100036.71
2023-04-04T17:43:14.523Z,100034.26
2023-04-04T17:45:44.388Z,100034.77
2023-04-04T17:48:21.119Z,100031.79
2023-04-04T17:50:50.618Z,100031.70
2023-04-04T17:53:26.576Z,100033.23
2023-04-04T17:55:54.853Z,100031.64
2023-04-04T17:58:23.188Z,100032.20
2023-04-04T18:00:56.115Z,100029.14
2023-04-04T18:03:25.576Z,100029.88
2023-04-04T18:05:54.319Z,100028.31
2023-04-04T18:08:22.902Z,100028.85
2023-04-04T18:10:52.094Z,100028.97
2023-04-04T18:13:23.237Z,100030.11
2023-04-04T18:15:53.556Z,100033.20
2023-04-04T18:18:22.961Z,100035.08
2023-04-04T18:20:54.671Z,100029.98
2023-04-04T18:23:24.460Z,100026.55
2023-04-04T18:25:52.709Z,100027.28
2023-04-04T18:28:21.703Z,100022.79
2023-04-04T18:30:50.182Z,100015.41
2023-04-04T18:33:20.096Z,100016.13
2023-04-04T18:35:50.753Z,100015.08
2023-04-04T18:38:19.525Z,100006.48
2023-04-04T18:40:53.227Z,100001.42
2023-04-04T18:43:22.157Z,100001.59
2023-04-04T18:45:50.907Z,99998.14
2023-04-04T18:48:19.490Z,100007.60
2023-04-04T18:50:47.674Z,100008.07
2023-04-04T18:53:16.655Z,100015.77
2023-04-04T18:55:46.466Z,100023.46
2023-04-04T18:58:16.089Z,100023.18
2023-04-04T19:00:44.830Z,100027.13
2023-04-04T19:03:15.457Z,100030.30
2023-04-04T19:05:47.532Z,100033.75
2023-04-04T19:08:16.670Z,100040.14
2023-04-04T19:10:47.492Z,100042.56
2023-04-04T19:13:19.970Z,100054.92
2023-04-04T19:15:49.893Z,100052.45
2023-04-04T19:18:25.334Z,100057.98
2023-04-04T19:20:54.224Z,100060.05
2023-04-04T19:23:22.605Z,100064.27
2023-04-04T19:25:51.289Z,100064.29
2023-04-04T19:28:19.772Z,100062.27
2023-04-04T19:30:49.308Z,100061.23
2023-04-04T19:33:20.326Z,100056.17
2023-04-04T19:35:54.811Z,100048.20
2023-04-04T19:38:37.552Z,100036.15
2023-04-04T19:41:23.043Z,100034.29
2023-04-04T19:43:51.316Z,100036.34
2023-04-04T19:46:22.989Z,100037.17
2023-04-04T19:48:55.856Z,100039.75
2023-04-04T19:51:24.131Z,100036.95
2023-04-04T19:54:00.915Z,100040.86
2023-04-04T19:56:29.489Z,100043.80
2023-04-04T19:59:08.116Z,100045.17
2023-04-04T20:01:44.883Z,100043.66
2023-04-04T20:04:18.834Z,100046.02
2023-04-04T20:06:49.226Z,100053.52
2023-04-04T20:09:43.869Z,100052.34
2023-04-04T20:12:12.445Z,100059.25
2023-04-04T20:14:41.595Z,100066.50
2023-04-04T20:17:10.077Z,100071.15
2023-04-04T20:19:38.664Z,100071.80
2023-04-04T20:22:07.960Z,100071.89
2023-04-04T20:24:36.750Z,100068.39
2023-04-04T20:27:05.100Z,100071.89
2023-04-04T20:29:36.374Z,100073.34
2023-04-04T20:32:07.993Z,100071.45
2023-04-04T20:34:40.915Z,100073.30
2023-04-04T20:37:26.523Z,100074.79
2023-04-04T20:39:58.746Z,100071.42
2023-04-04T20:42:29.908Z,100070.58
2023-04-04T20:45:21.284Z,100066.48
2023-04-04T20:48:01.080Z,100057.92
2023-04-04T20:50:35.004Z,100054.30
2023-04-04T20:53:05.005Z,100051.58
2023-04-04T20:55:44.345Z,100050.19
2023-04-04T20:58:33.507Z,100050.39
2023-04-04T21:01:04.503Z,100046.79
2023-04-04T21:03:48.703Z,100050.91
2023-04-04T21:06:20.158Z,100050.52
2023-04-04T21:08:53.909Z,100050.38
2023-04-04T21:11:29.149Z,100047.48
2023-04-04T21:13:57.724Z,100045.09
2023-04-04T21:16:30.579Z,100038.20
2023-04-04T21:19:03.670Z,100033.48
